KLM828 EHAM-EFHK
Flight info
| Callsign | KLM828 |
|---|---|
| Flight time | N/A |
| Altitude | 39000 |
| Route | ANDIK N873 JUIST DCT DOSUR DCT RASMU DCT ROGMI DCT ALAMI DCT OKEVU DCT EVADI Y370 DIVAM |
| Aircraft | B77W/H-SDE1E2E3FGHIJ2J3J4J5M1RWXY/LB1D1 |
Departure
| Time | 2026-04-30 19:02 |
|---|---|
| Airport | Amsterdam Airport Schiphol (EHAM) |
Arrival
| Time | N/A |
|---|---|
| Airport | Helsinki Vantaa Airport (EFHK) |
| Time | Latitude | Longitude | Altitude | Speed | Heading |
|---|---|---|---|---|---|
| 2026-04-30 18:30 | 52.31264 | 4.76056 | 4 ft | 0 kts | 109° |
| 2026-04-30 18:47 | 52.31268 | 4.76035 | 5 ft | 4 kts | 110° |
| 2026-04-30 18:47 | 52.31278 | 4.75994 | 6 ft | 4 kts | 108° |
| 2026-04-30 18:47 | 52.31282 | 4.75956 | 4 ft | 4 kts | 66° |
| 2026-04-30 18:47 | 52.31266 | 4.75937 | 7 ft | 4 kts | 11° |
| 2026-04-30 18:48 | 52.31240 | 4.75937 | 6 ft | 4 kts | 352° |
| 2026-04-30 18:48 | 52.31229 | 4.75940 | 5 ft | 0 kts | 357° |
| 2026-04-30 18:51 | 52.31232 | 4.75939 | 6 ft | 1 kts | 357° |
| 2026-04-30 18:52 | 52.31257 | 4.75937 | 7 ft | 6 kts | 357° |
| 2026-04-30 18:52 | 52.31320 | 4.75932 | 4 ft | 12 kts | 357° |
| 2026-04-30 18:52 | 52.31404 | 4.75925 | 4 ft | 11 kts | 356° |
| 2026-04-30 18:52 | 52.31421 | 4.75923 | 4 ft | 0 kts | 356° |
| 2026-04-30 18:53 | 52.31423 | 4.75923 | 4 ft | 2 kts | 356° |
| 2026-04-30 18:53 | 52.31457 | 4.75920 | 4 ft | 8 kts | 356° |
| 2026-04-30 18:53 | 52.31499 | 4.75912 | 4 ft | 6 kts | 342° |
| 2026-04-30 18:54 | 52.31519 | 4.75852 | 4 ft | 8 kts | 282° |
| 2026-04-30 18:54 | 52.31521 | 4.75734 | 4 ft | 12 kts | 267° |
| 2026-04-30 18:54 | 52.31516 | 4.75591 | 4 ft | 13 kts | 266° |
| 2026-04-30 18:54 | 52.31511 | 4.75447 | 4 ft | 13 kts | 267° |
| 2026-04-30 18:55 | 52.31507 | 4.75301 | 4 ft | 13 kts | 266° |
| 2026-04-30 18:55 | 52.31496 | 4.74998 | 4 ft | 14 kts | 267° |
| 2026-04-30 18:55 | 52.31492 | 4.74883 | 4 ft | 7 kts | 266° |
| 2026-04-30 18:56 | 52.31491 | 4.74831 | 4 ft | 0 kts | 267° |
| 2026-04-30 18:57 | 52.31488 | 4.74752 | 4 ft | 7 kts | 267° |
| 2026-04-30 18:57 | 52.31509 | 4.74681 | 4 ft | 8 kts | 329° |
| 2026-04-30 18:57 | 52.31550 | 4.74665 | 4 ft | 0 kts | 354° |
| 2026-04-30 19:00 | 52.31551 | 4.74665 | 4 ft | 1 kts | 354° |
| 2026-04-30 19:00 | 52.31574 | 4.74662 | 4 ft | 7 kts | 355° |
| 2026-04-30 19:00 | 52.31663 | 4.74721 | 4 ft | 3 kts | 70° |
| 2026-04-30 19:01 | 52.31686 | 4.75318 | 2 ft | 85 kts | 87° |
| 2026-04-30 19:01 | 52.31730 | 4.76718 | 14 ft | 157 kts | 89° |
| 2026-04-30 19:02 | 52.31932 | 4.80398 | 1711 ft | 158 kts | 88° |
| 2026-04-30 19:02 | 52.32140 | 4.84166 | 2953 ft | 195 kts | 91° |
| 2026-04-30 19:03 | 52.32388 | 4.89009 | 4049 ft | 234 kts | 88° |
| 2026-04-30 19:03 | 52.33990 | 4.93907 | 5684 ft | 256 kts | 58° |
| 2026-04-30 19:04 | 52.36203 | 4.98711 | 6312 ft | 271 kts | 59° |
| 2026-04-30 19:04 | 52.38397 | 5.03660 | 6318 ft | 266 kts | 60° |
| 2026-04-30 19:05 | 52.40536 | 5.08563 | 6310 ft | 264 kts | 60° |
| 2026-04-30 19:05 | 52.42914 | 5.13103 | 6842 ft | 270 kts | 36° |
| 2026-04-30 19:06 | 52.46646 | 5.15118 | 8536 ft | 291 kts | 19° |
| 2026-04-30 19:06 | 52.48614 | 5.15954 | 9570 ft | 294 kts | 19° |
| 2026-04-30 19:06 | 52.52484 | 5.18134 | 11156 ft | 301 kts | 41° |
| 2026-04-30 19:07 | 52.55680 | 5.23421 | 11619 ft | 357 kts | 51° |
| 2026-04-30 19:07 | 52.57417 | 5.26479 | 12298 ft | 372 kts | 50° |
| 2026-04-30 19:08 | 52.61064 | 5.32760 | 14372 ft | 385 kts | 50° |
| 2026-04-30 19:08 | 52.64860 | 5.39166 | 16339 ft | 396 kts | 49° |
| 2026-04-30 19:08 | 52.66811 | 5.42439 | 17265 ft | 403 kts | 49° |
| 2026-04-30 19:09 | 52.70798 | 5.49122 | 19061 ft | 415 kts | 49° |
| 2026-04-30 19:09 | 52.72833 | 5.52534 | 19910 ft | 420 kts | 49° |
| 2026-04-30 19:09 | 52.74883 | 5.55986 | 20790 ft | 422 kts | 49° |
| 2026-04-30 19:10 | 52.79031 | 5.63012 | 22394 ft | 433 kts | 48° |
| 2026-04-30 19:10 | 52.83297 | 5.70210 | 23891 ft | 443 kts | 47° |
| 2026-04-30 19:11 | 52.85470 | 5.73866 | 24561 ft | 448 kts | 47° |
| 2026-04-30 19:11 | 52.89872 | 5.81309 | 25342 ft | 458 kts | 47° |
| 2026-04-30 19:11 | 52.92096 | 5.85087 | 25347 ft | 456 kts | 47° |
| 2026-04-30 19:12 | 52.94305 | 5.88846 | 25353 ft | 454 kts | 47° |
| 2026-04-30 19:12 | 52.96503 | 5.92596 | 25356 ft | 454 kts | 47° |
| 2026-04-30 19:12 | 52.98704 | 5.96357 | 25355 ft | 454 kts | 47° |
| 2026-04-30 19:13 | 53.03056 | 6.03814 | 25358 ft | 455 kts | 47° |
| 2026-04-30 19:13 | 53.07465 | 6.11389 | 25364 ft | 456 kts | 47° |
| 2026-04-30 19:13 | 53.09667 | 6.15182 | 25358 ft | 455 kts | 47° |
| 2026-04-30 19:14 | 53.11868 | 6.18980 | 25591 ft | 458 kts | 47° |
| 2026-04-30 19:14 | 53.14086 | 6.22812 | 26261 ft | 460 kts | 47° |
| 2026-04-30 19:14 | 53.16309 | 6.26658 | 26981 ft | 461 kts | 47° |
| 2026-04-30 19:14 | 53.18538 | 6.30523 | 27612 ft | 465 kts | 47° |